sensor_id;sensor_type;location;lat;lon;timestamp;temperature;humidity
4922;DHT22;16625;53.624;10.106;2023-07-13T00:01:47;15.20;99.90
4922;DHT22;16625;53.624;10.106;2023-07-13T00:04:15;15.40;99.90
4922;DHT22;16625;53.624;10.106;2023-07-13T00:06:43;15.60;99.90
4922;DHT22;16625;53.624;10.106;2023-07-13T00:09:11;14.90;99.90
4922;DHT22;16625;53.624;10.106;2023-07-13T00:11:39;15.40;99.90
4922;DHT22;16625;53.624;10.106;2023-07-13T00:14:06;14.70;99.90
4922;DHT22;16625;53.624;10.106;2023-07-13T00:16:36;15.40;99.90
4922;DHT22;16625;53.624;10.106;2023-07-13T00:19:03;15.20;99.90
4922;DHT22;16625;53.624;10.106;2023-07-13T00:21:29;15.60;99.90
4922;DHT22;16625;53.624;10.106;2023-07-13T00:23:56;14.70;99.90
4922;DHT22;16625;53.624;10.106;2023-07-13T00:26:24;14.40;99.90
4922;DHT22;16625;53.624;10.106;2023-07-13T00:28:50;14.30;99.90
4922;DHT22;16625;53.624;10.106;2023-07-13T00:31:17;15.40;99.90
4922;DHT22;16625;53.624;10.106;2023-07-13T00:33:46;14.60;99.90
4922;DHT22;16625;53.624;10.106;2023-07-13T00:36:13;14.20;99.90
4922;DHT22;16625;53.624;10.106;2023-07-13T00:38:40;14.10;99.90
4922;DHT22;16625;53.624;10.106;2023-07-13T00:41:07;14.10;99.90
4922;DHT22;16625;53.624;10.106;2023-07-13T00:43:34;15.00;99.90
4922;DHT22;16625;53.624;10.106;2023-07-13T00:46:24;14.00;99.90
4922;DHT22;16625;53.624;10.106;2023-07-13T00:48:54;14.00;99.90
4922;DHT22;16625;53.624;10.106;2023-07-13T00:51:25;14.00;99.90
4922;DHT22;16625;53.624;10.106;2023-07-13T00:53:54;13.90;99.90
4922;DHT22;16625;53.624;10.106;2023-07-13T00:56:23;13.90;99.90
4922;DHT22;16625;53.624;10.106;2023-07-13T00:58:50;13.80;99.90
4922;DHT22;16625;53.624;10.106;2023-07-13T01:01:17;14.40;99.90
4922;DHT22;16625;53.624;10.106;2023-07-13T01:03:44;14.20;99.90
4922;DHT22;16625;53.624;10.106;2023-07-13T01:06:14;14.90;99.90
4922;DHT22;16625;53.624;10.106;2023-07-13T01:08:43;14.20;99.90
4922;DHT22;16625;53.624;10.106;2023-07-13T01:11:10;13.70;99.90
4922;DHT22;16625;53.624;10.106;2023-07-13T01:13:37;14.50;99.90
4922;DHT22;16625;53.624;10.106;2023-07-13T01:16:11;14.70;99.90
4922;DHT22;16625;53.624;10.106;2023-07-13T01:18:39;13.60;99.90
4922;DHT22;16625;53.624;10.106;2023-07-13T01:21:08;13.60;99.90
4922;DHT22;16625;53.624;10.106;2023-07-13T01:23:35;14.70;99.90
4922;DHT22;16625;53.624;10.106;2023-07-13T01:26:02;13.60;99.90
4922;DHT22;16625;53.624;10.106;2023-07-13T01:28:29;13.60;99.90
4922;DHT22;16625;53.624;10.106;2023-07-13T01:30:57;14.40;99.90
4922;DHT22;16625;53.624;10.106;2023-07-13T01:33:25;13.50;99.90
4922;DHT22;16625;53.624;10.106;2023-07-13T01:35:52;14.30;99.90
4922;DHT22;16625;53.624;10.106;2023-07-13T01:38:22;13.60;99.90
4922;DHT22;16625;53.624;10.106;2023-07-13T01:40:50;13.70;99.90
4922;DHT22;16625;53.624;10.106;2023-07-13T01:43:17;13.50;99.90
4922;DHT22;16625;53.624;10.106;2023-07-13T01:45:44;13.50;99.90
4922;DHT22;16625;53.624;10.106;2023-07-13T01:48:12;14.50;99.90
4922;DHT22;16625;53.624;10.106;2023-07-13T01:50:40;13.60;99.90
4922;DHT22;16625;53.624;10.106;2023-07-13T01:53:07;14.50;99.90
4922;DHT22;16625;53.624;10.106;2023-07-13T01:55:36;13.50;99.90
4922;DHT22;16625;53.624;10.106;2023-07-13T01:58:04;13.50;99.90
4922;DHT22;16625;53.624;10.106;2023-07-13T02:00:31;14.90;99.90
4922;DHT22;16625;53.624;10.106;2023-07-13T02:02:58;13.90;99.90
4922;DHT22;16625;53.624;10.106;2023-07-13T02:05:25;13.50;99.90
4922;DHT22;16625;53.624;10.106;2023-07-13T02:07:52;13.50;99.90
4922;DHT22;16625;53.624;10.106;2023-07-13T02:10:19;13.50;99.90
4922;DHT22;16625;53.624;10.106;2023-07-13T02:12:48;13.40;99.90
4922;DHT22;16625;53.624;10.106;2023-07-13T02:15:16;14.60;99.90
4922;DHT22;16625;53.624;10.106;2023-07-13T02:17:43;13.40;99.90
4922;DHT22;16625;53.624;10.106;2023-07-13T02:20:10;13.70;99.90
4922;DHT22;16625;53.624;10.106;2023-07-13T02:22:37;13.40;99.90
4922;DHT22;16625;53.624;10.106;2023-07-13T02:25:05;13.40;99.90
4922;DHT22;16625;53.624;10.106;2023-07-13T02:27:32;13.40;99.90
4922;DHT22;16625;53.624;10.106;2023-07-13T02:30:00;14.00;99.90
4922;DHT22;16625;53.624;10.106;2023-07-13T02:32:28;14.40;99.90
4922;DHT22;16625;53.624;10.106;2023-07-13T02:34:55;14.40;99.90
4922;DHT22;16625;53.624;10.106;2023-07-13T02:37:22;13.50;99.90
4922;DHT22;16625;53.624;10.106;2023-07-13T02:39:49;13.50;99.90
4922;DHT22;16625;53.624;10.106;2023-07-13T02:42:16;13.50;99.90
4922;DHT22;16625;53.624;10.106;2023-07-13T02:44:42;14.30;99.90
4922;DHT22;16625;53.624;10.106;2023-07-13T02:47:11;14.30;99.90
4922;DHT22;16625;53.624;10.106;2023-07-13T02:49:38;14.20;99.90
4922;DHT22;16625;53.624;10.106;2023-07-13T02:52:06;14.70;99.90
4922;DHT22;16625;53.624;10.106;2023-07-13T02:54:33;13.50;99.90
4922;DHT22;16625;53.624;10.106;2023-07-13T02:57:00;13.40;99.90
4922;DHT22;16625;53.624;10.106;2023-07-13T02:59:27;13.40;99.90
4922;DHT22;16625;53.624;10.106;2023-07-13T03:01:54;13.40;99.90
4922;DHT22;16625;53.624;10.106;2023-07-13T03:04:22;13.40;99.90
4922;DHT22;16625;53.624;10.106;2023-07-13T03:06:49;13.60;99.90
4922;DHT22;16625;53.624;10.106;2023-07-13T03:09:16;13.80;99.90
4922;DHT22;16625;53.624;10.106;2023-07-13T03:11:43;13.40;99.90
4922;DHT22;16625;53.624;10.106;2023-07-13T03:14:10;14.20;99.90
4922;DHT22;16625;53.624;10.106;2023-07-13T03:16:37;14.30;99.90
4922;DHT22;16625;53.624;10.106;2023-07-13T03:19:05;13.40;99.90
4922;DHT22;16625;53.624;10.106;2023-07-13T03:21:33;13.80;99.90
4922;DHT22;16625;53.624;10.106;2023-07-13T03:24:00;14.30;99.90
4922;DHT22;16625;53.624;10.106;2023-07-13T03:26:27;14.30;99.90
4922;DHT22;16625;53.624;10.106;2023-07-13T03:28:54;13.40;99.90
4922;DHT22;16625;53.624;10.106;2023-07-13T03:31:22;14.00;99.90
4922;DHT22;16625;53.624;10.106;2023-07-13T03:33:50;13.40;99.90
4922;DHT22;16625;53.624;10.106;2023-07-13T03:36:19;13.40;99.90
4922;DHT22;16625;53.624;10.106;2023-07-13T03:38:49;13.50;99.90
4922;DHT22;16625;53.624;10.106;2023-07-13T03:41:16;13.50;99.90
4922;DHT22;16625;53.624;10.106;2023-07-13T03:43:44;13.50;99.90
4922;DHT22;16625;53.624;10.106;2023-07-13T03:46:11;14.70;99.90
4922;DHT22;16625;53.624;10.106;2023-07-13T03:48:38;13.70;99.90
4922;DHT22;16625;53.624;10.106;2023-07-13T03:51:06;14.20;99.90
4922;DHT22;16625;53.624;10.106;2023-07-13T03:53:34;13.50;99.90
4922;DHT22;16625;53.624;10.106;2023-07-13T03:56:02;13.70;99.90
4922;DHT22;16625;53.624;10.106;2023-07-13T03:58:31;13.60;99.90
4922;DHT22;16625;53.624;10.106;2023-07-13T04:00:59;13.60;99.90
4922;DHT22;16625;53.624;10.106;2023-07-13T04:03:27;14.10;99.90
4922;DHT22;16625;53.624;10.106;2023-07-13T04:05:54;14.20;99.90
4922;DHT22;16625;53.624;10.106;2023-07-13T04:08:25;13.80;99.90
4922;DHT22;16625;53.624;10.106;2023-07-13T04:10:52;12.70;99.90
4922;DHT22;16625;53.624;10.106;2023-07-13T04:13:21;13.60;99.90
4922;DHT22;16625;53.624;10.106;2023-07-13T04:15:47;14.10;99.90
4922;DHT22;16625;53.624;10.106;2023-07-13T04:18:15;14.50;99.90
4922;DHT22;16625;53.624;10.106;2023-07-13T04:20:42;13.80;99.90
4922;DHT22;16625;53.624;10.106;2023-07-13T04:23:08;14.10;99.90
4922;DHT22;16625;53.624;10.106;2023-07-13T04:25:35;14.10;99.90
4922;DHT22;16625;53.624;10.106;2023-07-13T04:28:04;13.80;99.90
4922;DHT22;16625;53.624;10.106;2023-07-13T04:30:32;13.80;99.90
4922;DHT22;16625;53.624;10.106;2023-07-13T04:32:59;13.90;99.90
4922;DHT22;16625;53.624;10.106;2023-07-13T04:35:26;13.80;99.90
4922;DHT22;16625;53.624;10.106;2023-07-13T04:37:53;14.50;99.90
4922;DHT22;16625;53.624;10.106;2023-07-13T04:40:21;14.50;99.90
4922;DHT22;16625;53.624;10.106;2023-07-13T04:42:48;13.90;99.90
4922;DHT22;16625;53.624;10.106;2023-07-13T04:45:15;14.00;99.90
4922;DHT22;16625;53.624;10.106;2023-07-13T04:47:44;14.20;99.90
4922;DHT22;16625;53.624;10.106;2023-07-13T04:50:13;14.20;99.90
4922;DHT22;16625;53.624;10.106;2023-07-13T04:52:45;14.70;99.90
4922;DHT22;16625;53.624;10.106;2023-07-13T04:55:12;14.10;99.90
4922;DHT22;16625;53.624;10.106;2023-07-13T04:57:39;14.10;99.90
4922;DHT22;16625;53.624;10.106;2023-07-13T05:00:07;14.70;99.90
4922;DHT22;16625;53.624;10.106;2023-07-13T05:02:35;14.20;99.90
4922;DHT22;16625;53.624;10.106;2023-07-13T05:05:03;14.30;99.90
4922;DHT22;16625;53.624;10.106;2023-07-13T05:07:30;14.40;99.90
4922;DHT22;16625;53.624;10.106;2023-07-13T05:09:58;14.40;99.90
4922;DHT22;16625;53.624;10.106;2023-07-13T05:12:25;14.70;99.90
4922;DHT22;16625;53.624;10.106;2023-07-13T05:14:52;15.40;99.90
4922;DHT22;16625;53.624;10.106;2023-07-13T05:17:19;14.70;99.90
4922;DHT22;16625;53.624;10.106;2023-07-13T05:19:46;14.80;99.90
4922;DHT22;16625;53.624;10.106;2023-07-13T05:22:14;15.30;99.90
4922;DHT22;16625;53.624;10.106;2023-07-13T05:24:41;15.00;99.90
4922;DHT22;16625;53.624;10.106;2023-07-13T05:27:08;15.50;99.90
4922;DHT22;16625;53.624;10.106;2023-07-13T05:29:35;16.10;99.90
4922;DHT22;16625;53.624;10.106;2023-07-13T05:32:02;15.60;99.90
4922;DHT22;16625;53.624;10.106;2023-07-13T05:34:29;15.70;99.90
4922;DHT22;16625;53.624;10.106;2023-07-13T05:36:56;16.60;99.90
4922;DHT22;16625;53.624;10.106;2023-07-13T05:39:24;16.20;99.90
4922;DHT22;16625;53.624;10.106;2023-07-13T05:41:53;16.40;99.90
4922;DHT22;16625;53.624;10.106;2023-07-13T05:44:20;17.00;99.90
4922;DHT22;16625;53.624;10.106;2023-07-13T05:46:46;16.90;99.90
4922;DHT22;16625;53.624;10.106;2023-07-13T05:49:13;17.80;99.90
4922;DHT22;16625;53.624;10.106;2023-07-13T05:51:41;17.50;99.90
4922;DHT22;16625;53.624;10.106;2023-07-13T05:54:08;17.20;99.90
4922;DHT22;16625;53.624;10.106;2023-07-13T05:56:37;17.30;99.90
4922;DHT22;16625;53.624;10.106;2023-07-13T05:59:04;17.70;99.90
4922;DHT22;16625;53.624;10.106;2023-07-13T06:01:31;17.70;99.90
4922;DHT22;16625;53.624;10.106;2023-07-13T06:03:57;18.10;99.90
4922;DHT22;16625;53.624;10.106;2023-07-13T06:06:24;18.30;99.90
4922;DHT22;16625;53.624;10.106;2023-07-13T06:08:51;17.50;99.90
4922;DHT22;16625;53.624;10.106;2023-07-13T06:11:21;18.00;99.90
4922;DHT22;16625;53.624;10.106;2023-07-13T06:13:50;17.60;99.90
4922;DHT22;16625;53.624;10.106;2023-07-13T06:16:17;17.60;99.90
4922;DHT22;16625;53.624;10.106;2023-07-13T06:18:44;17.60;99.90
4922;DHT22;16625;53.624;10.106;2023-07-13T06:21:13;17.60;99.90
4922;DHT22;16625;53.624;10.106;2023-07-13T06:23:40;18.10;99.90
4922;DHT22;16625;53.624;10.106;2023-07-13T06:26:08;17.50;99.90
4922;DHT22;16625;53.624;10.106;2023-07-13T06:28:36;17.60;99.90
4922;DHT22;16625;53.624;10.106;2023-07-13T06:31:07;17.50;99.90
4922;DHT22;16625;53.624;10.106;2023-07-13T06:33:34;17.90;99.90
4922;DHT22;16625;53.624;10.106;2023-07-13T06:36:01;18.00;99.90
4922;DHT22;16625;53.624;10.106;2023-07-13T06:38:28;18.10;99.90
4922;DHT22;16625;53.624;10.106;2023-07-13T06:40:55;17.80;99.90
4922;DHT22;16625;53.624;10.106;2023-07-13T06:43:22;17.80;99.90
4922;DHT22;16625;53.624;10.106;2023-07-13T06:45:50;17.80;99.90
4922;DHT22;16625;53.624;10.106;2023-07-13T06:48:19;18.70;99.90
4922;DHT22;16625;53.624;10.106;2023-07-13T06:50:47;18.30;99.90
4922;DHT22;16625;53.624;10.106;2023-07-13T06:53:15;18.30;99.90
4922;DHT22;16625;53.624;10.106;2023-07-13T06:55:43;19.10;99.90
4922;DHT22;16625;53.624;10.106;2023-07-13T06:58:11;18.60;99.90
4922;DHT22;16625;53.624;10.106;2023-07-13T07:00:38;18.70;96.80
4922;DHT22;16625;53.624;10.106;2023-07-13T07:03:06;19.00;13.70
4922;DHT22;16625;53.624;10.106;2023-07-13T07:05:34;18.80;1.00
4922;DHT22;16625;53.624;10.106;2023-07-13T07:08:01;18.80;99.90
4922;DHT22;16625;53.624;10.106;2023-07-13T07:10:30;18.90;99.90
4922;DHT22;16625;53.624;10.106;2023-07-13T07:12:57;19.40;1.00
4922;DHT22;16625;53.624;10.106;2023-07-13T07:15:25;19.00;99.90
4922;DHT22;16625;53.624;10.106;2023-07-13T07:17:53;19.90;99.90
4922;DHT22;16625;53.624;10.106;2023-07-13T07:20:20;19.10;99.90
4922;DHT22;16625;53.624;10.106;2023-07-13T07:22:48;19.20;99.90
4922;DHT22;16625;53.624;10.106;2023-07-13T07:25:15;19.00;99.90
4922;DHT22;16625;53.624;10.106;2023-07-13T07:27:42;19.10;99.90
4922;DHT22;16625;53.624;10.106;2023-07-13T07:30:10;19.30;99.90
4922;DHT22;16625;53.624;10.106;2023-07-13T07:32:37;19.10;33.80
4922;DHT22;16625;53.624;10.106;2023-07-13T07:35:04;19.90;1.00
4922;DHT22;16625;53.624;10.106;2023-07-13T07:37:31;19.40;99.90
4922;DHT22;16625;53.624;10.106;2023-07-13T07:39:59;19.40;99.90
4922;DHT22;16625;53.624;10.106;2023-07-13T07:42:26;19.30;1.00
4922;DHT22;16625;53.624;10.106;2023-07-13T07:44:53;19.40;1.00
4922;DHT22;16625;53.624;10.106;2023-07-13T07:47:20;19.60;1.00
4922;DHT22;16625;53.624;10.106;2023-07-13T07:49:48;19.40;99.90
4922;DHT22;16625;53.624;10.106;2023-07-13T07:52:15;19.50;99.90
4922;DHT22;16625;53.624;10.106;2023-07-13T07:54:42;19.80;99.90
4922;DHT22;16625;53.624;10.106;2023-07-13T07:57:10;20.00;1.00
4922;DHT22;16625;53.624;10.106;2023-07-13T07:59:37;20.30;99.90
4922;DHT22;16625;53.624;10.106;2023-07-13T08:02:05;20.30;1.00
4922;DHT22;16625;53.624;10.106;2023-07-13T08:04:32;20.10;99.90
4922;DHT22;16625;53.624;10.106;2023-07-13T08:06:59;20.10;99.90
4922;DHT22;16625;53.624;10.106;2023-07-13T08:09:28;20.30;99.90
4922;DHT22;16625;53.624;10.106;2023-07-13T08:11:55;20.50;99.90
4922;DHT22;16625;53.624;10.106;2023-07-13T08:14:23;20.60;99.90
4922;DHT22;16625;53.624;10.106;2023-07-13T08:16:50;20.80;99.90
4922;DHT22;16625;53.624;10.106;2023-07-13T08:19:17;21.20;1.00
4922;DHT22;16625;53.624;10.106;2023-07-13T08:21:44;21.30;99.90
4922;DHT22;16625;53.624;10.106;2023-07-13T08:24:13;20.80;1.50
4922;DHT22;16625;53.624;10.106;2023-07-13T08:26:40;20.90;1.00
4922;DHT22;16625;53.624;10.106;2023-07-13T08:29:07;21.30;99.90
4922;DHT22;16625;53.624;10.106;2023-07-13T08:31:35;21.40;1.00
4922;DHT22;16625;53.624;10.106;2023-07-13T08:34:02;21.30;1.00
4922;DHT22;16625;53.624;10.106;2023-07-13T08:36:29;21.50;99.90
4922;DHT22;16625;53.624;10.106;2023-07-13T08:38:56;21.30;99.90
4922;DHT22;16625;53.624;10.106;2023-07-13T08:41:23;21.50;99.90
4922;DHT22;16625;53.624;10.106;2023-07-13T08:43:51;21.40;99.90
4922;DHT22;16625;53.624;10.106;2023-07-13T08:46:24;21.20;1.00
4922;DHT22;16625;53.624;10.106;2023-07-13T08:48:56;21.20;1.00
4922;DHT22;16625;53.624;10.106;2023-07-13T08:51:30;20.80;1.00
4922;DHT22;16625;53.624;10.106;2023-07-13T08:54:00;20.70;1.00
4922;DHT22;16625;53.624;10.106;2023-07-13T08:56:29;20.60;99.90
4922;DHT22;16625;53.624;10.106;2023-07-13T08:58:58;20.60;99.90
4922;DHT22;16625;53.624;10.106;2023-07-13T09:01:30;20.80;99.90
4922;DHT22;16625;53.624;10.106;2023-07-13T09:04:04;20.70;1.00
4922;DHT22;16625;53.624;10.106;2023-07-13T09:06:38;21.10;27.90
4922;DHT22;16625;53.624;10.106;2023-07-13T09:09:15;21.30;99.90
4922;DHT22;16625;53.624;10.106;2023-07-13T09:11:50;21.40;1.00
4922;DHT22;16625;53.624;10.106;2023-07-13T09:14:34;21.60;1.00
4922;DHT22;16625;53.624;10.106;2023-07-13T09:17:03;22.00;1.00
4922;DHT22;16625;53.624;10.106;2023-07-13T09:19:33;22.20;99.90
4922;DHT22;16625;53.624;10.106;2023-07-13T09:22:03;22.20;18.90
4922;DHT22;16625;53.624;10.106;2023-07-13T09:24:37;22.40;88.90
4922;DHT22;16625;53.624;10.106;2023-07-13T09:27:12;22.70;73.00
4922;DHT22;16625;53.624;10.106;2023-07-13T09:29:46;22.90;1.00
4922;DHT22;16625;53.624;10.106;2023-07-13T09:32:14;22.70;1.00
4922;DHT22;16625;53.624;10.106;2023-07-13T09:34:51;22.80;99.90
4922;DHT22;16625;53.624;10.106;2023-07-13T09:37:20;22.90;99.90
4922;DHT22;16625;53.624;10.106;2023-07-13T09:39:49;22.70;99.90
4922;DHT22;16625;53.624;10.106;2023-07-13T09:42:19;22.40;99.90
4922;DHT22;16625;53.624;10.106;2023-07-13T09:44:55;22.40;99.90
4922;DHT22;16625;53.624;10.106;2023-07-13T09:47:24;22.50;99.90
4922;DHT22;16625;53.624;10.106;2023-07-13T09:49:58;22.30;99.90
4922;DHT22;16625;53.624;10.106;2023-07-13T09:52:26;22.20;99.90
4922;DHT22;16625;53.624;10.106;2023-07-13T09:54:54;22.40;99.90
4922;DHT22;16625;53.624;10.106;2023-07-13T09:57:26;22.50;99.90
4922;DHT22;16625;53.624;10.106;2023-07-13T09:59:54;22.50;99.90
4922;DHT22;16625;53.624;10.106;2023-07-13T10:02:26;22.20;99.90
4922;DHT22;16625;53.624;10.106;2023-07-13T10:04:59;22.30;99.90
4922;DHT22;16625;53.624;10.106;2023-07-13T10:07:27;22.60;99.90
4922;DHT22;16625;53.624;10.106;2023-07-13T10:09:55;23.00;99.90
4922;DHT22;16625;53.624;10.106;2023-07-13T10:12:23;23.40;35.00
4922;DHT22;16625;53.624;10.106;2023-07-13T10:14:52;23.50;1.00
4922;DHT22;16625;53.624;10.106;2023-07-13T10:17:29;23.40;1.00
4922;DHT22;16625;53.624;10.106;2023-07-13T10:20:00;22.90;1.00
4922;DHT22;16625;53.624;10.106;2023-07-13T10:22:36;23.00;1.00
4922;DHT22;16625;53.624;10.106;2023-07-13T10:25:16;22.90;1.00
4922;DHT22;16625;53.624;10.106;2023-07-13T10:27:45;22.70;1.00
4922;DHT22;16625;53.624;10.106;2023-07-13T10:30:17;22.80;1.00
4922;DHT22;16625;53.624;10.106;2023-07-13T10:32:45;22.80;1.00
4922;DHT22;16625;53.624;10.106;2023-07-13T10:35:15;22.80;1.00
4922;DHT22;16625;53.624;10.106;2023-07-13T10:37:47;23.20;1.00
4922;DHT22;16625;53.624;10.106;2023-07-13T10:40:19;23.40;1.00
4922;DHT22;16625;53.624;10.106;2023-07-13T10:42:51;23.60;1.00
4922;DHT22;16625;53.624;10.106;2023-07-13T10:45:21;23.80;1.00
4922;DHT22;16625;53.624;10.106;2023-07-13T10:47:49;23.70;1.00
4922;DHT22;16625;53.624;10.106;2023-07-13T10:50:21;23.60;1.00
4922;DHT22;16625;53.624;10.106;2023-07-13T10:52:50;23.60;1.00
4922;DHT22;16625;53.624;10.106;2023-07-13T10:55:37;23.40;1.00
4922;DHT22;16625;53.624;10.106;2023-07-13T10:58:13;23.40;1.00
4922;DHT22;16625;53.624;10.106;2023-07-13T11:00:47;23.70;1.00
4922;DHT22;16625;53.624;10.106;2023-07-13T11:03:17;24.10;1.00
4922;DHT22;16625;53.624;10.106;2023-07-13T11:05:48;24.40;1.00
4922;DHT22;16625;53.624;10.106;2023-07-13T11:08:19;24.40;1.00
4922;DHT22;16625;53.624;10.106;2023-07-13T11:10:51;24.50;1.00
4922;DHT22;16625;53.624;10.106;2023-07-13T11:13:39;24.60;1.00
4922;DHT22;16625;53.624;10.106;2023-07-13T11:16:35;24.90;1.00
4922;DHT22;16625;53.624;10.106;2023-07-13T11:22:20;24.10;1.00
4922;DHT22;16625;53.624;10.106;2023-07-13T11:24:56;23.60;99.90
4922;DHT22;16625;53.624;10.106;2023-07-13T11:27:34;23.50;99.90
4922;DHT22;16625;53.624;10.106;2023-07-13T11:30:22;23.50;99.90
4922;DHT22;16625;53.624;10.106;2023-07-13T11:32:51;23.80;99.90
4922;DHT22;16625;53.624;10.106;2023-07-13T11:35:33;24.30;99.90
4922;DHT22;16625;53.624;10.106;2023-07-13T11:38:02;24.50;99.90
4922;DHT22;16625;53.624;10.106;2023-07-13T11:40:29;24.30;99.90
4922;DHT22;16625;53.624;10.106;2023-07-13T11:42:59;24.10;99.90
4922;DHT22;16625;53.624;10.106;2023-07-13T11:45:26;23.90;99.90
4922;DHT22;16625;53.624;10.106;2023-07-13T11:47:54;23.60;99.90
4922;DHT22;16625;53.624;10.106;2023-07-13T11:50:23;23.20;99.90
4922;DHT22;16625;53.624;10.106;2023-07-13T11:52:52;23.30;99.90
4922;DHT22;16625;53.624;10.106;2023-07-13T11:55:23;23.10;99.90
4922;DHT22;16625;53.624;10.106;2023-07-13T11:57:54;22.80;99.90
4922;DHT22;16625;53.624;10.106;2023-07-13T12:00:26;22.30;99.90
4922;DHT22;16625;53.624;10.106;2023-07-13T12:02:57;22.40;99.90
4922;DHT22;16625;53.624;10.106;2023-07-13T12:05:26;22.60;99.90
4922;DHT22;16625;53.624;10.106;2023-07-13T12:07:53;22.80;99.90
4922;DHT22;16625;53.624;10.106;2023-07-13T12:10:25;23.00;99.90
4922;DHT22;16625;53.624;10.106;2023-07-13T12:12:56;22.80;99.90
4922;DHT22;16625;53.624;10.106;2023-07-13T12:15:26;22.70;99.90
4922;DHT22;16625;53.624;10.106;2023-07-13T12:17:56;22.50;99.90
4922;DHT22;16625;53.624;10.106;2023-07-13T12:20:25;22.20;99.90
4922;DHT22;16625;53.624;10.106;2023-07-13T12:22:53;21.80;99.90
4922;DHT22;16625;53.624;10.106;2023-07-13T13:31:37;18.60;99.90
4922;DHT22;16625;53.624;10.106;2023-07-13T13:34:08;18.80;99.90
4922;DHT22;16625;53.624;10.106;2023-07-13T13:36:36;19.20;99.90
4922;DHT22;16625;53.624;10.106;2023-07-13T13:39:21;19.70;99.90
4922;DHT22;16625;53.624;10.106;2023-07-13T13:41:51;19.80;99.90
4922;DHT22;16625;53.624;10.106;2023-07-13T13:44:39;19.70;99.90
4922;DHT22;16625;53.624;10.106;2023-07-13T13:47:22;19.80;1.00
4922;DHT22;16625;53.624;10.106;2023-07-13T13:49:53;19.80;1.00
4922;DHT22;16625;53.624;10.106;2023-07-13T13:52:20;20.10;1.00
4922;DHT22;16625;53.624;10.106;2023-07-13T13:54:47;19.50;99.90
4922;DHT22;16625;53.624;10.106;2023-07-13T13:57:14;19.80;99.90
4922;DHT22;16625;53.624;10.106;2023-07-13T16:02:03;21.90;99.90
4922;DHT22;16625;53.624;10.106;2023-07-13T16:04:33;21.50;99.90
4922;DHT22;16625;53.624;10.106;2023-07-13T16:06:59;21.50;99.90
4922;DHT22;16625;53.624;10.106;2023-07-13T16:09:26;21.10;1.00
4922;DHT22;16625;53.624;10.106;2023-07-13T16:11:53;21.10;1.00
4922;DHT22;16625;53.624;10.106;2023-07-13T16:14:23;21.00;1.00
4922;DHT22;16625;53.624;10.106;2023-07-13T16:16:50;21.10;99.90
4922;DHT22;16625;53.624;10.106;2023-07-13T16:19:22;21.20;99.90
4922;DHT22;16625;53.624;10.106;2023-07-13T16:21:54;21.20;99.90
4922;DHT22;16625;53.624;10.106;2023-07-13T16:24:22;21.30;99.90
4922;DHT22;16625;53.624;10.106;2023-07-13T16:26:51;21.30;1.00
4922;DHT22;16625;53.624;10.106;2023-07-13T16:29:22;20.90;99.90
4922;DHT22;16625;53.624;10.106;2023-07-13T16:31:58;20.80;99.90
4922;DHT22;16625;53.624;10.106;2023-07-13T16:34:28;20.80;1.00
4922;DHT22;16625;53.624;10.106;2023-07-13T16:36:55;20.90;99.90
4922;DHT22;16625;53.624;10.106;2023-07-13T16:39:22;21.10;99.90
4922;DHT22;16625;53.624;10.106;2023-07-13T16:41:52;21.00;1.00
4922;DHT22;16625;53.624;10.106;2023-07-13T16:44:20;21.10;99.90
4922;DHT22;16625;53.624;10.106;2023-07-13T16:46:50;20.90;75.70
4922;DHT22;16625;53.624;10.106;2023-07-13T16:49:26;22.40;40.30
4922;DHT22;16625;53.624;10.106;2023-07-13T16:51:56;23.50;1.00
4922;DHT22;16625;53.624;10.106;2023-07-13T16:54:28;23.20;1.00
4922;DHT22;16625;53.624;10.106;2023-07-13T16:56:57;22.30;1.00
4922;DHT22;16625;53.624;10.106;2023-07-13T16:59:29;22.50;1.00
4922;DHT22;16625;53.624;10.106;2023-07-13T17:01:57;24.60;1.00
4922;DHT22;16625;53.624;10.106;2023-07-13T20:20:56;17.20;1.00
4922;DHT22;16625;53.624;10.106;2023-07-13T20:23:25;17.10;1.00
4922;DHT22;16625;53.624;10.106;2023-07-13T20:25:53;16.90;99.90
4922;DHT22;16625;53.624;10.106;2023-07-13T20:28:27;16.80;99.90
4922;DHT22;16625;53.624;10.106;2023-07-13T20:30:54;16.70;99.90
4922;DHT22;16625;53.624;10.106;2023-07-13T20:33:24;16.50;99.90
4922;DHT22;16625;53.624;10.106;2023-07-13T20:35:53;16.40;1.00
4922;DHT22;16625;53.624;10.106;2023-07-13T20:38:22;16.30;1.80
4922;DHT22;16625;53.624;10.106;2023-07-13T20:40:49;16.20;1.00
4922;DHT22;16625;53.624;10.106;2023-07-13T20:43:17;16.10;1.00
4922;DHT22;16625;53.624;10.106;2023-07-13T20:45:45;16.00;1.00
4922;DHT22;16625;53.624;10.106;2023-07-13T20:48:25;16.00;1.00
4922;DHT22;16625;53.624;10.106;2023-07-13T20:50:56;16.00;1.00
4922;DHT22;16625;53.624;10.106;2023-07-13T20:53:25;15.10;1.00
4922;DHT22;16625;53.624;10.106;2023-07-13T20:55:52;16.80;1.00
4922;DHT22;16625;53.624;10.106;2023-07-13T20:58:20;15.80;1.00
4922;DHT22;16625;53.624;10.106;2023-07-13T21:00:47;16.40;1.00
4922;DHT22;16625;53.624;10.106;2023-07-13T21:03:19;15.60;6.50
4922;DHT22;16625;53.624;10.106;2023-07-13T21:05:47;15.60;99.90
4922;DHT22;16625;53.624;10.106;2023-07-13T21:08:16;15.50;99.90
4922;DHT22;16625;53.624;10.106;2023-07-13T21:10:45;16.20;1.00
4922;DHT22;16625;53.624;10.106;2023-07-13T21:13:14;15.40;1.00
4922;DHT22;16625;53.624;10.106;2023-07-13T21:15:43;16.30;1.00
4922;DHT22;16625;53.624;10.106;2023-07-13T21:18:16;15.40;1.00
4922;DHT22;16625;53.624;10.106;2023-07-13T21:20:47;15.40;1.00
4922;DHT22;16625;53.624;10.106;2023-07-13T21:23:27;15.30;1.00
4922;DHT22;16625;53.624;10.106;2023-07-13T21:25:57;15.70;93.90
4922;DHT22;16625;53.624;10.106;2023-07-13T21:28:25;15.30;99.90
4922;DHT22;16625;53.624;10.106;2023-07-13T21:30:54;16.20;99.90
4922;DHT22;16625;53.624;10.106;2023-07-13T21:33:22;15.20;99.90
4922;DHT22;16625;53.624;10.106;2023-07-13T21:35:50;16.00;99.90
4922;DHT22;16625;53.624;10.106;2023-07-13T21:38:20;15.80;99.90
4922;DHT22;16625;53.624;10.106;2023-07-13T21:40:49;15.10;99.90
4922;DHT22;16625;53.624;10.106;2023-07-13T21:43:19;15.20;99.90
4922;DHT22;16625;53.624;10.106;2023-07-13T21:45:46;15.20;99.90
4922;DHT22;16625;53.624;10.106;2023-07-13T21:48:14;15.10;99.90
4922;DHT22;16625;53.624;10.106;2023-07-13T21:50:43;15.60;99.90
4922;DHT22;16625;53.624;10.106;2023-07-13T21:53:17;14.10;99.90
4922;DHT22;16625;53.624;10.106;2023-07-13T21:55:45;14.90;99.90
4922;DHT22;16625;53.624;10.106;2023-07-13T21:58:18;15.70;99.90
4922;DHT22;16625;53.624;10.106;2023-07-13T22:00:46;14.80;99.90
4922;DHT22;16625;53.624;10.106;2023-07-13T22:03:23;15.30;99.90
4922;DHT22;16625;53.624;10.106;2023-07-13T22:05:51;15.20;99.90
4922;DHT22;16625;53.624;10.106;2023-07-13T22:08:19;14.80;99.90
4922;DHT22;16625;53.624;10.106;2023-07-13T22:10:48;15.10;99.90
4922;DHT22;16625;53.624;10.106;2023-07-13T22:13:15;15.10;99.90
4922;DHT22;16625;53.624;10.106;2023-07-13T22:15:44;15.40;99.90